sensor_id;sensor_type;location;lat;lon;timestamp;P1;durP1;ratioP1;P2;durP2;ratioP2
43809;SDS011;29440;48.208;11.162;2023-07-22T00:01:06;9.93;;;2.55;;
43809;SDS011;29440;48.208;11.162;2023-07-22T00:03:31;5.68;;;2.55;;
43809;SDS011;29440;48.208;11.162;2023-07-22T00:06:06;4.15;;;2.30;;
43809;SDS011;29440;48.208;11.162;2023-07-22T00:08:33;10.40;;;2.30;;
43809;SDS011;29440;48.208;11.162;2023-07-22T00:11:00;3.80;;;2.55;;
43809;SDS011;29440;48.208;11.162;2023-07-22T00:13:26;7.57;;;2.70;;
43809;SDS011;29440;48.208;11.162;2023-07-22T00:15:54;6.72;;;2.25;;
43809;SDS011;29440;48.208;11.162;2023-07-22T00:18:20;9.18;;;2.47;;
43809;SDS011;29440;48.208;11.162;2023-07-22T00:20:46;9.02;;;2.70;;
43809;SDS011;29440;48.208;11.162;2023-07-22T00:23:12;6.25;;;2.13;;
43809;SDS011;29440;48.208;11.162;2023-07-22T00:25:40;6.13;;;2.38;;
43809;SDS011;29440;48.208;11.162;2023-07-22T00:28:05;12.05;;;2.95;;
43809;SDS011;29440;48.208;11.162;2023-07-22T00:30:31;7.68;;;2.55;;
43809;SDS011;29440;48.208;11.162;2023-07-22T00:32:57;7.43;;;2.28;;
43809;SDS011;29440;48.208;11.162;2023-07-22T00:35:22;7.78;;;2.47;;
43809;SDS011;29440;48.208;11.162;2023-07-22T00:37:48;3.95;;;2.42;;
43809;SDS011;29440;48.208;11.162;2023-07-22T00:40:13;6.65;;;2.33;;
43809;SDS011;29440;48.208;11.162;2023-07-22T00:42:39;7.05;;;2.30;;
43809;SDS011;29440;48.208;11.162;2023-07-22T00:45:05;4.78;;;2.60;;
43809;SDS011;29440;48.208;11.162;2023-07-22T00:47:32;7.82;;;3.38;;
43809;SDS011;29440;48.208;11.162;2023-07-22T00:49:59;7.82;;;4.22;;
43809;SDS011;29440;48.208;11.162;2023-07-22T00:52:26;9.60;;;4.68;;
43809;SDS011;29440;48.208;11.162;2023-07-22T00:54:52;6.28;;;4.70;;
43809;SDS011;29440;48.208;11.162;2023-07-22T00:57:17;7.13;;;3.95;;
43809;SDS011;29440;48.208;11.162;2023-07-22T00:59:44;10.60;;;4.78;;
43809;SDS011;29440;48.208;11.162;2023-07-22T01:02:10;8.35;;;4.80;;
43809;SDS011;29440;48.208;11.162;2023-07-22T01:04:35;9.18;;;4.38;;
43809;SDS011;29440;48.208;11.162;2023-07-22T01:07:02;7.47;;;4.32;;
43809;SDS011;29440;48.208;11.162;2023-07-22T01:09:38;7.68;;;4.65;;
43809;SDS011;29440;48.208;11.162;2023-07-22T01:12:07;6.93;;;4.18;;
43809;SDS011;29440;48.208;11.162;2023-07-22T01:14:34;8.70;;;4.68;;
43809;SDS011;29440;48.208;11.162;2023-07-22T01:17:03;5.80;;;4.00;;
43809;SDS011;29440;48.208;11.162;2023-07-22T01:19:31;8.32;;;4.13;;
43809;SDS011;29440;48.208;11.162;2023-07-22T01:21:58;8.77;;;4.65;;
43809;SDS011;29440;48.208;11.162;2023-07-22T01:24:27;10.20;;;4.85;;
43809;SDS011;29440;48.208;11.162;2023-07-22T01:26:54;6.78;;;4.53;;
43809;SDS011;29440;48.208;11.162;2023-07-22T01:29:21;8.35;;;4.40;;
43809;SDS011;29440;48.208;11.162;2023-07-22T01:31:48;7.97;;;4.70;;
43809;SDS011;29440;48.208;11.162;2023-07-22T01:34:15;6.60;;;3.70;;
43809;SDS011;29440;48.208;11.162;2023-07-22T01:36:42;5.93;;;3.42;;
43809;SDS011;29440;48.208;11.162;2023-07-22T01:39:08;10.02;;;4.35;;
43809;SDS011;29440;48.208;11.162;2023-07-22T01:41:33;9.45;;;4.50;;
43809;SDS011;29440;48.208;11.162;2023-07-22T01:43:59;6.97;;;4.15;;
43809;SDS011;29440;48.208;11.162;2023-07-22T01:46:25;6.90;;;4.22;;
43809;SDS011;29440;48.208;11.162;2023-07-22T01:48:50;9.48;;;4.65;;
43809;SDS011;29440;48.208;11.162;2023-07-22T01:51:16;8.75;;;4.13;;
43809;SDS011;29440;48.208;11.162;2023-07-22T01:53:41;6.85;;;4.80;;
43809;SDS011;29440;48.208;11.162;2023-07-22T01:56:07;6.22;;;4.30;;
43809;SDS011;29440;48.208;11.162;2023-07-22T01:58:32;6.80;;;4.68;;
43809;SDS011;29440;48.208;11.162;2023-07-22T02:00:58;8.57;;;4.82;;
43809;SDS011;29440;48.208;11.162;2023-07-22T02:03:24;5.32;;;3.83;;
43809;SDS011;29440;48.208;11.162;2023-07-22T02:05:50;10.93;;;4.80;;
43809;SDS011;29440;48.208;11.162;2023-07-22T02:08:15;6.80;;;4.72;;
43809;SDS011;29440;48.208;11.162;2023-07-22T02:10:40;5.97;;;4.38;;
43809;SDS011;29440;48.208;11.162;2023-07-22T02:13:06;6.75;;;4.10;;
43809;SDS011;29440;48.208;11.162;2023-07-22T02:15:32;6.25;;;3.30;;
43809;SDS011;29440;48.208;11.162;2023-07-22T02:17:57;7.60;;;3.25;;
43809;SDS011;29440;48.208;11.162;2023-07-22T02:20:23;3.53;;;3.00;;
43809;SDS011;29440;48.208;11.162;2023-07-22T02:22:51;8.57;;;4.50;;
43809;SDS011;29440;48.208;11.162;2023-07-22T02:25:17;6.70;;;3.40;;
43809;SDS011;29440;48.208;11.162;2023-07-22T02:27:43;5.68;;;3.28;;
43809;SDS011;29440;48.208;11.162;2023-07-22T02:30:08;8.40;;;3.63;;
43809;SDS011;29440;48.208;11.162;2023-07-22T02:32:38;4.72;;;4.03;;
43809;SDS011;29440;48.208;11.162;2023-07-22T02:35:05;8.30;;;4.35;;
43809;SDS011;29440;48.208;11.162;2023-07-22T02:37:31;8.60;;;4.55;;
43809;SDS011;29440;48.208;11.162;2023-07-22T02:39:57;9.60;;;4.53;;
43809;SDS011;29440;48.208;11.162;2023-07-22T02:42:23;11.18;;;4.25;;
43809;SDS011;29440;48.208;11.162;2023-07-22T02:44:48;5.15;;;3.40;;
43809;SDS011;29440;48.208;11.162;2023-07-22T02:47:14;4.40;;;3.20;;
43809;SDS011;29440;48.208;11.162;2023-07-22T02:49:39;5.53;;;3.80;;
43809;SDS011;29440;48.208;11.162;2023-07-22T02:52:05;6.13;;;3.78;;
43809;SDS011;29440;48.208;11.162;2023-07-22T02:54:31;9.68;;;3.50;;
43809;SDS011;29440;48.208;11.162;2023-07-22T02:57:02;5.05;;;3.10;;
43809;SDS011;29440;48.208;11.162;2023-07-22T02:59:28;4.88;;;3.28;;
43809;SDS011;29440;48.208;11.162;2023-07-22T03:01:54;7.50;;;3.33;;
43809;SDS011;29440;48.208;11.162;2023-07-22T03:04:19;3.88;;;3.15;;
43809;SDS011;29440;48.208;11.162;2023-07-22T03:06:45;6.00;;;3.67;;
43809;SDS011;29440;48.208;11.162;2023-07-22T03:09:11;3.50;;;2.78;;
43809;SDS011;29440;48.208;11.162;2023-07-22T03:11:36;7.20;;;4.00;;
43809;SDS011;29440;48.208;11.162;2023-07-22T03:14:02;5.80;;;4.00;;
43809;SDS011;29440;48.208;11.162;2023-07-22T03:16:27;8.98;;;3.40;;
43809;SDS011;29440;48.208;11.162;2023-07-22T03:18:53;4.65;;;2.97;;
43809;SDS011;29440;48.208;11.162;2023-07-22T03:21:18;5.75;;;3.08;;
43809;SDS011;29440;48.208;11.162;2023-07-22T03:23:44;7.93;;;3.47;;
43809;SDS011;29440;48.208;11.162;2023-07-22T03:26:09;5.97;;;3.83;;
43809;SDS011;29440;48.208;11.162;2023-07-22T03:28:35;4.88;;;3.75;;
43809;SDS011;29440;48.208;11.162;2023-07-22T03:31:01;8.23;;;4.13;;
43809;SDS011;29440;48.208;11.162;2023-07-22T03:33:27;6.50;;;4.32;;
43809;SDS011;29440;48.208;11.162;2023-07-22T03:35:52;6.00;;;4.15;;
43809;SDS011;29440;48.208;11.162;2023-07-22T03:38:18;5.57;;;3.88;;
43809;SDS011;29440;48.208;11.162;2023-07-22T03:40:43;7.40;;;3.90;;
43809;SDS011;29440;48.208;11.162;2023-07-22T03:43:09;6.72;;;4.03;;
43809;SDS011;29440;48.208;11.162;2023-07-22T03:45:34;7.15;;;4.22;;
43809;SDS011;29440;48.208;11.162;2023-07-22T03:48:00;6.70;;;4.05;;
43809;SDS011;29440;48.208;11.162;2023-07-22T03:50:26;7.40;;;4.70;;
43809;SDS011;29440;48.208;11.162;2023-07-22T03:52:52;7.97;;;4.20;;
43809;SDS011;29440;48.208;11.162;2023-07-22T03:55:18;6.70;;;3.10;;
43809;SDS011;29440;48.208;11.162;2023-07-22T03:57:44;5.13;;;3.08;;
43809;SDS011;29440;48.208;11.162;2023-07-22T04:00:10;6.47;;;2.45;;
43809;SDS011;29440;48.208;11.162;2023-07-22T04:02:36;6.13;;;2.10;;
43809;SDS011;29440;48.208;11.162;2023-07-22T04:05:02;3.58;;;2.40;;
43809;SDS011;29440;48.208;11.162;2023-07-22T04:07:27;5.00;;;2.85;;
43809;SDS011;29440;48.208;11.162;2023-07-22T04:09:53;3.45;;;2.38;;
43809;SDS011;29440;48.208;11.162;2023-07-22T04:12:18;4.13;;;3.00;;
43809;SDS011;29440;48.208;11.162;2023-07-22T04:14:44;4.57;;;2.88;;
43809;SDS011;29440;48.208;11.162;2023-07-22T04:17:09;8.32;;;4.32;;
43809;SDS011;29440;48.208;11.162;2023-07-22T04:19:35;6.82;;;4.50;;
43809;SDS011;29440;48.208;11.162;2023-07-22T04:22:01;7.13;;;4.55;;
43809;SDS011;29440;48.208;11.162;2023-07-22T04:24:29;5.10;;;3.80;;
43809;SDS011;29440;48.208;11.162;2023-07-22T04:26:56;5.03;;;3.47;;
43809;SDS011;29440;48.208;11.162;2023-07-22T04:29:22;6.30;;;3.30;;
43809;SDS011;29440;48.208;11.162;2023-07-22T04:31:47;8.95;;;3.60;;
43809;SDS011;29440;48.208;11.162;2023-07-22T04:34:13;6.25;;;3.42;;
43809;SDS011;29440;48.208;11.162;2023-07-22T04:36:38;4.60;;;3.20;;
43809;SDS011;29440;48.208;11.162;2023-07-22T04:39:04;5.60;;;3.38;;
43809;SDS011;29440;48.208;11.162;2023-07-22T04:41:30;6.32;;;3.70;;
43809;SDS011;29440;48.208;11.162;2023-07-22T04:43:56;10.85;;;3.20;;
43809;SDS011;29440;48.208;11.162;2023-07-22T04:46:23;5.57;;;3.33;;
43809;SDS011;29440;48.208;11.162;2023-07-22T04:48:49;4.53;;;3.28;;
43809;SDS011;29440;48.208;11.162;2023-07-22T04:51:15;8.20;;;3.42;;
43809;SDS011;29440;48.208;11.162;2023-07-22T04:53:40;5.70;;;3.28;;
43809;SDS011;29440;48.208;11.162;2023-07-22T04:56:06;4.72;;;3.00;;
43809;SDS011;29440;48.208;11.162;2023-07-22T04:58:31;5.57;;;2.70;;
43809;SDS011;29440;48.208;11.162;2023-07-22T05:00:57;6.15;;;2.42;;
43809;SDS011;29440;48.208;11.162;2023-07-22T05:03:23;7.03;;;2.63;;
43809;SDS011;29440;48.208;11.162;2023-07-22T05:05:51;5.20;;;2.80;;
43809;SDS011;29440;48.208;11.162;2023-07-22T05:08:17;8.77;;;2.47;;
43809;SDS011;29440;48.208;11.162;2023-07-22T05:10:42;9.93;;;2.75;;
43809;SDS011;29440;48.208;11.162;2023-07-22T05:13:08;7.70;;;2.15;;
43809;SDS011;29440;48.208;11.162;2023-07-22T05:15:33;4.75;;;2.67;;
43809;SDS011;29440;48.208;11.162;2023-07-22T05:17:59;4.00;;;2.42;;
43809;SDS011;29440;48.208;11.162;2023-07-22T05:20:25;4.53;;;2.70;;
43809;SDS011;29440;48.208;11.162;2023-07-22T05:22:50;3.60;;;2.38;;
43809;SDS011;29440;48.208;11.162;2023-07-22T05:25:16;3.55;;;2.28;;
43809;SDS011;29440;48.208;11.162;2023-07-22T05:27:41;5.85;;;2.03;;
43809;SDS011;29440;48.208;11.162;2023-07-22T05:30:07;3.38;;;2.08;;
43809;SDS011;29440;48.208;11.162;2023-07-22T05:32:33;7.05;;;2.08;;
43809;SDS011;29440;48.208;11.162;2023-07-22T05:34:58;4.45;;;2.00;;
43809;SDS011;29440;48.208;11.162;2023-07-22T05:37:24;4.28;;;1.88;;
43809;SDS011;29440;48.208;11.162;2023-07-22T05:39:50;2.75;;;1.73;;
43809;SDS011;29440;48.208;11.162;2023-07-22T05:42:16;3.58;;;1.42;;
43809;SDS011;29440;48.208;11.162;2023-07-22T05:44:42;3.50;;;1.80;;
43809;SDS011;29440;48.208;11.162;2023-07-22T05:47:07;8.68;;;1.98;;
43809;SDS011;29440;48.208;11.162;2023-07-22T05:49:33;2.88;;;1.50;;
43809;SDS011;29440;48.208;11.162;2023-07-22T05:51:58;2.90;;;1.60;;
43809;SDS011;29440;48.208;11.162;2023-07-22T05:54:24;4.20;;;1.67;;
43809;SDS011;29440;48.208;11.162;2023-07-22T05:56:49;3.90;;;1.88;;
43809;SDS011;29440;48.208;11.162;2023-07-22T06:01:44;5.32;;;1.67;;
43809;SDS011;29440;48.208;11.162;2023-07-22T06:04:10;5.10;;;1.40;;
43809;SDS011;29440;48.208;11.162;2023-07-22T06:06:36;1.77;;;1.40;;
43809;SDS011;29440;48.208;11.162;2023-07-22T06:09:01;2.95;;;1.48;;
43809;SDS011;29440;48.208;11.162;2023-07-22T06:11:27;3.45;;;1.70;;
43809;SDS011;29440;48.208;11.162;2023-07-22T06:13:53;3.53;;;1.23;;
43809;SDS011;29440;48.208;11.162;2023-07-22T06:16:19;3.60;;;1.50;;
43809;SDS011;29440;48.208;11.162;2023-07-22T06:18:44;4.07;;;1.50;;
43809;SDS011;29440;48.208;11.162;2023-07-22T06:21:10;5.55;;;1.63;;
43809;SDS011;29440;48.208;11.162;2023-07-22T06:23:35;4.60;;;2.08;;
43809;SDS011;29440;48.208;11.162;2023-07-22T06:26:01;3.53;;;1.27;;
43809;SDS011;29440;48.208;11.162;2023-07-22T06:28:27;3.97;;;1.60;;
43809;SDS011;29440;48.208;11.162;2023-07-22T06:30:53;5.00;;;1.90;;
43809;SDS011;29440;48.208;11.162;2023-07-22T06:33:18;7.40;;;1.20;;
43809;SDS011;29440;48.208;11.162;2023-07-22T06:35:44;3.20;;;0.90;;
43809;SDS011;29440;48.208;11.162;2023-07-22T06:38:09;2.42;;;1.08;;
43809;SDS011;29440;48.208;11.162;2023-07-22T06:40:35;5.05;;;1.45;;
43809;SDS011;29440;48.208;11.162;2023-07-22T06:43:00;3.15;;;1.50;;
43809;SDS011;29440;48.208;11.162;2023-07-22T06:45:26;3.53;;;1.25;;
43809;SDS011;29440;48.208;11.162;2023-07-22T06:47:51;1.35;;;0.90;;
43809;SDS011;29440;48.208;11.162;2023-07-22T06:50:17;1.90;;;1.13;;
43809;SDS011;29440;48.208;11.162;2023-07-22T06:52:42;2.85;;;1.20;;
43809;SDS011;29440;48.208;11.162;2023-07-22T06:55:08;3.10;;;0.82;;
43809;SDS011;29440;48.208;11.162;2023-07-22T06:57:33;3.17;;;1.13;;
43809;SDS011;29440;48.208;11.162;2023-07-22T06:59:59;7.10;;;1.30;;
43809;SDS011;29440;48.208;11.162;2023-07-22T07:02:25;2.75;;;0.82;;
43809;SDS011;29440;48.208;11.162;2023-07-22T07:04:52;2.80;;;1.00;;
43809;SDS011;29440;48.208;11.162;2023-07-22T07:07:17;6.03;;;1.10;;
43809;SDS011;29440;48.208;11.162;2023-07-22T07:09:43;5.45;;;1.60;;
43809;SDS011;29440;48.208;11.162;2023-07-22T07:12:08;2.53;;;1.08;;
43809;SDS011;29440;48.208;11.162;2023-07-22T07:14:34;4.38;;;1.05;;
43809;SDS011;29440;48.208;11.162;2023-07-22T07:17:00;4.70;;;1.20;;
43809;SDS011;29440;48.208;11.162;2023-07-22T07:19:27;4.53;;;1.52;;
43809;SDS011;29440;48.208;11.162;2023-07-22T07:21:53;2.72;;;0.90;;
43809;SDS011;29440;48.208;11.162;2023-07-22T07:24:18;3.13;;;1.05;;
43809;SDS011;29440;48.208;11.162;2023-07-22T07:26:44;5.10;;;0.90;;
43809;SDS011;29440;48.208;11.162;2023-07-22T07:29:10;2.53;;;0.90;;
43809;SDS011;29440;48.208;11.162;2023-07-22T07:31:36;25.17;;;3.42;;
43809;SDS011;29440;48.208;11.162;2023-07-22T07:34:02;1.27;;;0.70;;
43809;SDS011;29440;48.208;11.162;2023-07-22T07:36:28;1.50;;;0.80;;
43809;SDS011;29440;48.208;11.162;2023-07-22T07:38:53;1.42;;;0.77;;
43809;SDS011;29440;48.208;11.162;2023-07-22T07:41:19;1.85;;;0.90;;
43809;SDS011;29440;48.208;11.162;2023-07-22T07:43:44;5.47;;;1.63;;
43809;SDS011;29440;48.208;11.162;2023-07-22T07:46:28;1.63;;;0.73;;
43809;SDS011;29440;48.208;11.162;2023-07-22T07:51:25;3.67;;;0.90;;
43809;SDS011;29440;48.208;11.162;2023-07-22T07:53:52;3.30;;;0.73;;
43809;SDS011;29440;48.208;11.162;2023-07-22T07:56:18;2.35;;;0.77;;
43809;SDS011;29440;48.208;11.162;2023-07-22T07:58:45;3.10;;;0.80;;
43809;SDS011;29440;48.208;11.162;2023-07-22T08:01:11;3.03;;;0.68;;
43809;SDS011;29440;48.208;11.162;2023-07-22T08:03:38;1.90;;;0.80;;
43809;SDS011;29440;48.208;11.162;2023-07-22T08:06:04;2.67;;;1.00;;
43809;SDS011;29440;48.208;11.162;2023-07-22T08:08:31;4.15;;;0.80;;
43809;SDS011;29440;48.208;11.162;2023-07-22T08:10:58;1.42;;;0.68;;
43809;SDS011;29440;48.208;11.162;2023-07-22T08:13:23;1.75;;;0.80;;
43809;SDS011;29440;48.208;11.162;2023-07-22T08:15:49;1.67;;;0.75;;
43809;SDS011;29440;48.208;11.162;2023-07-22T08:18:14;2.33;;;0.82;;
43809;SDS011;29440;48.208;11.162;2023-07-22T08:20:40;1.30;;;0.80;;
43809;SDS011;29440;48.208;11.162;2023-07-22T08:23:06;4.00;;;0.90;;
43809;SDS011;29440;48.208;11.162;2023-07-22T08:25:32;1.17;;;0.68;;
43809;SDS011;29440;48.208;11.162;2023-07-22T08:27:57;2.10;;;1.00;;
43809;SDS011;29440;48.208;11.162;2023-07-22T08:30:23;2.33;;;0.80;;
43809;SDS011;29440;48.208;11.162;2023-07-22T08:32:48;1.60;;;0.80;;
43809;SDS011;29440;48.208;11.162;2023-07-22T08:35:14;1.77;;;0.90;;
43809;SDS011;29440;48.208;11.162;2023-07-22T08:37:42;3.08;;;0.70;;
43809;SDS011;29440;48.208;11.162;2023-07-22T08:40:11;3.50;;;0.80;;
43809;SDS011;29440;48.208;11.162;2023-07-22T08:42:37;1.85;;;0.60;;
43809;SDS011;29440;48.208;11.162;2023-07-22T08:45:03;1.33;;;0.52;;
43809;SDS011;29440;48.208;11.162;2023-07-22T08:47:30;2.45;;;0.70;;
43809;SDS011;29440;48.208;11.162;2023-07-22T08:49:58;1.52;;;0.70;;
43809;SDS011;29440;48.208;11.162;2023-07-22T08:52:26;1.92;;;0.80;;
43809;SDS011;29440;48.208;11.162;2023-07-22T08:54:52;2.55;;;0.70;;
43809;SDS011;29440;48.208;11.162;2023-07-22T08:57:19;2.70;;;0.65;;
43809;SDS011;29440;48.208;11.162;2023-07-22T08:59:46;1.65;;;0.60;;
43809;SDS011;29440;48.208;11.162;2023-07-22T09:02:13;1.25;;;0.63;;
43809;SDS011;29440;48.208;11.162;2023-07-22T09:04:41;3.67;;;0.75;;
43809;SDS011;29440;48.208;11.162;2023-07-22T09:07:08;1.52;;;0.60;;
43809;SDS011;29440;48.208;11.162;2023-07-22T09:09:36;2.65;;;0.70;;
43809;SDS011;29440;48.208;11.162;2023-07-22T09:12:02;1.58;;;0.93;;
43809;SDS011;29440;48.208;11.162;2023-07-22T09:14:27;1.10;;;0.60;;
43809;SDS011;29440;48.208;11.162;2023-07-22T09:16:55;2.75;;;0.50;;
43809;SDS011;29440;48.208;11.162;2023-07-22T09:19:21;3.40;;;0.63;;
43809;SDS011;29440;48.208;11.162;2023-07-22T09:21:46;2.03;;;0.60;;
43809;SDS011;29440;48.208;11.162;2023-07-22T09:24:21;1.38;;;0.57;;
43809;SDS011;29440;48.208;11.162;2023-07-22T09:26:48;2.47;;;0.75;;
43809;SDS011;29440;48.208;11.162;2023-07-22T09:29:14;1.23;;;0.50;;
43809;SDS011;29440;48.208;11.162;2023-07-22T09:31:53;2.45;;;0.70;;
43809;SDS011;29440;48.208;11.162;2023-07-22T09:34:19;5.28;;;0.88;;
43809;SDS011;29440;48.208;11.162;2023-07-22T09:36:57;2.85;;;0.80;;
43809;SDS011;29440;48.208;11.162;2023-07-22T09:39:29;2.88;;;0.55;;
43809;SDS011;29440;48.208;11.162;2023-07-22T09:41:55;1.58;;;0.70;;
43809;SDS011;29440;48.208;11.162;2023-07-22T09:44:22;1.77;;;0.80;;
43809;SDS011;29440;48.208;11.162;2023-07-22T09:46:50;1.77;;;0.68;;
43809;SDS011;29440;48.208;11.162;2023-07-22T09:49:16;2.72;;;0.82;;
43809;SDS011;29440;48.208;11.162;2023-07-22T09:51:43;1.52;;;0.70;;
43809;SDS011;29440;48.208;11.162;2023-07-22T09:54:09;1.15;;;0.60;;
43809;SDS011;29440;48.208;11.162;2023-07-22T09:56:45;1.30;;;0.70;;
43809;SDS011;29440;48.208;11.162;2023-07-22T09:59:13;0.90;;;0.60;;
43809;SDS011;29440;48.208;11.162;2023-07-22T10:01:39;1.05;;;0.50;;
43809;SDS011;29440;48.208;11.162;2023-07-22T10:04:06;1.48;;;0.70;;
43809;SDS011;29440;48.208;11.162;2023-07-22T10:06:32;5.35;;;0.80;;
43809;SDS011;29440;48.208;11.162;2023-07-22T10:09:02;1.83;;;0.60;;
43809;SDS011;29440;48.208;11.162;2023-07-22T10:11:33;1.05;;;0.60;;
43809;SDS011;29440;48.208;11.162;2023-07-22T10:14:01;2.28;;;0.70;;
43809;SDS011;29440;48.208;11.162;2023-07-22T10:16:27;1.02;;;0.73;;
43809;SDS011;29440;48.208;11.162;2023-07-22T10:18:53;1.25;;;0.60;;
43809;SDS011;29440;48.208;11.162;2023-07-22T10:21:19;4.30;;;0.60;;
43809;SDS011;29440;48.208;11.162;2023-07-22T10:23:45;1.27;;;0.55;;
43809;SDS011;29440;48.208;11.162;2023-07-22T10:26:13;2.90;;;0.60;;
43809;SDS011;29440;48.208;11.162;2023-07-22T10:28:41;1.55;;;0.60;;
43809;SDS011;29440;48.208;11.162;2023-07-22T10:31:08;0.80;;;0.50;;
43809;SDS011;29440;48.208;11.162;2023-07-22T10:33:34;1.48;;;0.70;;
43809;SDS011;29440;48.208;11.162;2023-07-22T10:36:03;1.73;;;0.60;;
43809;SDS011;29440;48.208;11.162;2023-07-22T10:38:31;2.10;;;0.77;;
43809;SDS011;29440;48.208;11.162;2023-07-22T10:40:57;2.33;;;0.75;;
43809;SDS011;29440;48.208;11.162;2023-07-22T10:43:24;1.60;;;0.70;;
43809;SDS011;29440;48.208;11.162;2023-07-22T10:45:55;1.40;;;0.80;;
43809;SDS011;29440;48.208;11.162;2023-07-22T10:48:23;1.15;;;0.65;;
43809;SDS011;29440;48.208;11.162;2023-07-22T10:50:53;1.63;;;0.70;;
43809;SDS011;29440;48.208;11.162;2023-07-22T11:06:38;3.03;;;0.88;;
43809;SDS011;29440;48.208;11.162;2023-07-22T11:14:50;2.13;;;0.90;;
43809;SDS011;29440;48.208;11.162;2023-07-22T11:17:27;1.75;;;0.85;;
43809;SDS011;29440;48.208;11.162;2023-07-22T11:19:58;2.35;;;0.73;;
43809;SDS011;29440;48.208;11.162;2023-07-22T11:22:24;2.10;;;0.70;;
43809;SDS011;29440;48.208;11.162;2023-07-22T11:24:50;1.67;;;0.50;;
43809;SDS011;29440;48.208;11.162;2023-07-22T11:27:16;1.38;;;0.70;;
43809;SDS011;29440;48.208;11.162;2023-07-22T11:29:41;1.40;;;0.70;;
43809;SDS011;29440;48.208;11.162;2023-07-22T11:32:14;0.82;;;0.45;;
43809;SDS011;29440;48.208;11.162;2023-07-22T11:34:41;1.38;;;0.70;;
43809;SDS011;29440;48.208;11.162;2023-07-22T11:37:09;2.35;;;0.60;;
43809;SDS011;29440;48.208;11.162;2023-07-22T11:39:35;2.05;;;0.60;;
43809;SDS011;29440;48.208;11.162;2023-07-22T11:42:02;1.10;;;0.77;;
43809;SDS011;29440;48.208;11.162;2023-07-22T11:44:29;1.10;;;0.70;;
43809;SDS011;29440;48.208;11.162;2023-07-22T11:46:56;2.42;;;0.73;;
43809;SDS011;29440;48.208;11.162;2023-07-22T11:49:26;2.05;;;0.80;;
43809;SDS011;29440;48.208;11.162;2023-07-22T11:52:11;2.05;;;0.75;;
43809;SDS011;29440;48.208;11.162;2023-07-22T11:54:42;1.40;;;0.80;;
43809;SDS011;29440;48.208;11.162;2023-07-22T11:57:19;3.80;;;0.70;;
43809;SDS011;29440;48.208;11.162;2023-07-22T11:59:47;1.17;;;0.55;;
43809;SDS011;29440;48.208;11.162;2023-07-22T12:02:24;1.42;;;0.60;;
43809;SDS011;29440;48.208;11.162;2023-07-22T12:07:23;1.80;;;0.60;;
43809;SDS011;29440;48.208;11.162;2023-07-22T12:09:49;1.40;;;0.80;;
43809;SDS011;29440;48.208;11.162;2023-07-22T12:12:16;1.63;;;0.70;;
43809;SDS011;29440;48.208;11.162;2023-07-22T12:14:42;1.83;;;0.88;;
43809;SDS011;29440;48.208;11.162;2023-07-22T12:17:08;1.20;;;0.60;;
43809;SDS011;29440;48.208;11.162;2023-07-22T12:19:34;1.75;;;1.00;;
43809;SDS011;29440;48.208;11.162;2023-07-22T12:22:00;1.08;;;0.50;;
43809;SDS011;29440;48.208;11.162;2023-07-22T12:24:27;3.95;;;0.82;;
43809;SDS011;29440;48.208;11.162;2023-07-22T12:26:52;2.70;;;0.80;;
43809;SDS011;29440;48.208;11.162;2023-07-22T12:29:18;2.00;;;0.90;;
43809;SDS011;29440;48.208;11.162;2023-07-22T12:31:44;1.27;;;0.60;;
43809;SDS011;29440;48.208;11.162;2023-07-22T12:34:09;0.90;;;0.60;;
43809;SDS011;29440;48.208;11.162;2023-07-22T12:36:35;1.10;;;0.60;;
43809;SDS011;29440;48.208;11.162;2023-07-22T12:39:00;1.17;;;0.70;;
43809;SDS011;29440;48.208;11.162;2023-07-22T12:41:26;1.17;;;0.60;;
43809;SDS011;29440;48.208;11.162;2023-07-22T12:43:52;1.48;;;0.70;;
43809;SDS011;29440;48.208;11.162;2023-07-22T12:46:17;2.33;;;0.88;;
43809;SDS011;29440;48.208;11.162;2023-07-22T12:48:43;2.35;;;1.38;;
43809;SDS011;29440;48.208;11.162;2023-07-22T12:51:09;1.15;;;0.80;;
43809;SDS011;29440;48.208;11.162;2023-07-22T12:53:34;3.85;;;0.70;;
43809;SDS011;29440;48.208;11.162;2023-07-22T12:56:00;1.92;;;0.65;;
43809;SDS011;29440;48.208;11.162;2023-07-22T12:58:28;2.88;;;0.65;;
43809;SDS011;29440;48.208;11.162;2023-07-22T13:00:54;1.33;;;0.70;;
43809;SDS011;29440;48.208;11.162;2023-07-22T13:03:19;2.30;;;0.90;;
43809;SDS011;29440;48.208;11.162;2023-07-22T13:05:45;1.50;;;0.82;;
43809;SDS011;29440;48.208;11.162;2023-07-22T13:08:10;1.17;;;0.70;;
43809;SDS011;29440;48.208;11.162;2023-07-22T13:10:36;2.67;;;0.75;;
43809;SDS011;29440;48.208;11.162;2023-07-22T13:13:04;1.80;;;0.80;;
43809;SDS011;29440;48.208;11.162;2023-07-22T13:15:30;1.23;;;0.68;;
43809;SDS011;29440;48.208;11.162;2023-07-22T13:17:56;1.70;;;0.80;;
43809;SDS011;29440;48.208;11.162;2023-07-22T13:20:21;1.33;;;0.80;;
43809;SDS011;29440;48.208;11.162;2023-07-22T13:22:47;2.70;;;0.98;;
43809;SDS011;29440;48.208;11.162;2023-07-22T13:25:12;4.22;;;0.82;;
43809;SDS011;29440;48.208;11.162;2023-07-22T13:27:38;1.83;;;0.70;;
43809;SDS011;29440;48.208;11.162;2023-07-22T13:30:06;1.02;;;0.70;;
43809;SDS011;29440;48.208;11.162;2023-07-22T13:32:32;1.85;;;0.80;;
43809;SDS011;29440;48.208;11.162;2023-07-22T13:34:58;1.17;;;0.80;;
43809;SDS011;29440;48.208;11.162;2023-07-22T13:37:23;1.83;;;1.00;;
43809;SDS011;29440;48.208;11.162;2023-07-22T13:39:49;2.45;;;0.73;;
43809;SDS011;29440;48.208;11.162;2023-07-22T13:42:14;2.30;;;1.10;;
43809;SDS011;29440;48.208;11.162;2023-07-22T13:44:40;7.70;;;1.20;;
43809;SDS011;29440;48.208;11.162;2023-07-22T13:47:05;2.03;;;0.98;;
43809;SDS011;29440;48.208;11.162;2023-07-22T13:49:31;1.58;;;0.90;;
43809;SDS011;29440;48.208;11.162;2023-07-22T13:51:56;1.52;;;0.80;;
43809;SDS011;29440;48.208;11.162;2023-07-22T13:54:22;2.65;;;0.90;;
43809;SDS011;29440;48.208;11.162;2023-07-22T13:56:47;3.78;;;1.20;;
43809;SDS011;29440;48.208;11.162;2023-07-22T13:59:14;3.20;;;1.00;;
43809;SDS011;29440;48.208;11.162;2023-07-22T14:01:39;2.30;;;0.85;;
43809;SDS011;29440;48.208;11.162;2023-07-22T14:04:05;4.15;;;1.10;;
43809;SDS011;29440;48.208;11.162;2023-07-22T14:06:31;1.80;;;0.80;;
43809;SDS011;29440;48.208;11.162;2023-07-22T14:08:57;1.63;;;1.10;;
43809;SDS011;29440;48.208;11.162;2023-07-22T14:11:23;3.95;;;0.90;;
43809;SDS011;29440;48.208;11.162;2023-07-22T14:13:49;2.03;;;1.10;;
43809;SDS011;29440;48.208;11.162;2023-07-22T14:16:17;2.20;;;1.40;;
43809;SDS011;29440;48.208;11.162;2023-07-22T14:18:42;2.22;;;1.05;;
43809;SDS011;29440;48.208;11.162;2023-07-22T14:21:08;1.98;;;0.75;;
43809;SDS011;29440;48.208;11.162;2023-07-22T14:23:35;1.88;;;1.05;;
43809;SDS011;29440;48.208;11.162;2023-07-22T14:26:04;2.90;;;1.02;;
43809;SDS011;29440;48.208;11.162;2023-07-22T14:28:30;2.95;;;0.85;;
43809;SDS011;29440;48.208;11.162;2023-07-22T14:30:55;3.85;;;1.15;;
43809;SDS011;29440;48.208;11.162;2023-07-22T14:33:21;1.75;;;0.88;;
43809;SDS011;29440;48.208;11.162;2023-07-22T14:35:46;1.60;;;1.00;;
43809;SDS011;29440;48.208;11.162;2023-07-22T14:38:12;2.85;;;1.17;;
43809;SDS011;29440;48.208;11.162;2023-07-22T14:40:38;2.42;;;1.23;;
43809;SDS011;29440;48.208;11.162;2023-07-22T14:43:03;2.42;;;0.85;;
43809;SDS011;29440;48.208;11.162;2023-07-22T14:45:29;2.45;;;0.90;;
43809;SDS011;29440;48.208;11.162;2023-07-22T14:47:55;2.72;;;0.90;;
43809;SDS011;29440;48.208;11.162;2023-07-22T14:50:33;2.10;;;1.20;;
43809;SDS011;29440;48.208;11.162;2023-07-22T14:52:59;1.55;;;0.90;;
43809;SDS011;29440;48.208;11.162;2023-07-22T14:55:25;3.00;;;1.25;;